createdAt,value
2023-03-01T00:03:28.117Z,-1.2
2023-03-01T00:22:44.656Z,-1.2
2023-03-01T00:42:01.853Z,-1.2
2023-03-01T01:01:19.561Z,-1.4
2023-03-01T01:20:35.940Z,-1.6
2023-03-01T01:39:51.797Z,-1.7
2023-03-01T01:59:09.984Z,-1.6
2023-03-01T02:18:27.176Z,-1.8
2023-03-01T02:37:42.321Z,-1.9
2023-03-01T02:56:57.589Z,-2
2023-03-01T03:16:16.817Z,-2.1
2023-03-01T03:35:34.192Z,-2.5
2023-03-01T03:54:50.606Z,-2.3
2023-03-01T04:14:07.494Z,-2.4
2023-03-01T04:33:23.283Z,-2.5
2023-03-01T04:52:41.627Z,-2.5
2023-03-01T05:11:59.233Z,-2.4
2023-03-01T05:31:17.135Z,-2.5
2023-03-01T05:50:33.850Z,-2.7
2023-03-01T06:09:50.984Z,-2.7
2023-03-01T06:29:04.319Z,-2.8
2023-03-01T06:48:23.017Z,-2.7
2023-03-01T07:07:42.074Z,-2.8
2023-03-01T07:26:59.311Z,-2.4
2023-03-01T07:46:18.528Z,-2.2
2023-03-01T08:05:38.090Z,-1.7
2023-03-01T08:24:58.402Z,-0.8
2023-03-01T08:44:53.228Z,4.5
2023-03-01T09:04:03.271Z,3.1
2023-03-01T09:23:19.727Z,3
2023-03-01T09:42:41.844Z,4.4
2023-03-01T10:02:16.135Z,6.9
2023-03-01T10:21:19.981Z,5.2
2023-03-01T10:40:36.114Z,5.4
2023-03-01T10:59:50.640Z,5.7
2023-03-01T11:19:09.815Z,6.1
2023-03-01T11:38:29.325Z,6.6
2023-03-01T11:57:48.460Z,6.8
2023-03-01T12:17:09.283Z,7.4
2023-03-01T12:36:27.157Z,7.6
2023-03-01T12:55:46.765Z,7.8
2023-03-01T13:15:09.123Z,8.2
2023-03-01T13:34:26.535Z,8.1
2023-03-01T13:53:46.320Z,8.6
2023-03-01T14:13:15.577Z,8.5
2023-03-01T14:32:24.706Z,8.4
2023-03-01T14:51:42.511Z,8.4
2023-03-01T15:11:01.671Z,8.3
2023-03-01T15:30:09.537Z,8.1
2023-03-01T15:49:27.043Z,7.9
2023-03-01T16:08:42.459Z,7.6
2023-03-01T16:27:58.078Z,7
2023-03-01T16:47:14.057Z,6.4
2023-03-01T17:06:31.096Z,5.8
2023-03-01T17:25:46.787Z,5.1
2023-03-01T17:45:03.364Z,4.7
2023-03-01T18:04:20.267Z,4.3
2023-03-01T18:23:37.169Z,4.1
2023-03-01T18:42:53.293Z,3.6
2023-03-01T19:02:08.336Z,3.5
2023-03-01T19:21:24.562Z,3.6
2023-03-01T19:40:57.891Z,3.1
2023-03-01T20:00:08.545Z,3
2023-03-01T20:19:19.511Z,2.9
2023-03-01T20:38:36.608Z,2.6
2023-03-01T20:57:54.600Z,2.9
2023-03-01T21:17:13.629Z,2.5
2023-03-01T21:36:29.553Z,2.5
2023-03-01T21:55:51.782Z,2.3
2023-03-01T22:34:22.276Z,1.6
2023-03-01T22:53:36.707Z,1.4
2023-03-01T23:12:50.416Z,1.6
2023-03-01T23:32:06.458Z,1.1
2023-03-01T23:51:23.856Z,1
